createdAt,value
2022-08-19T00:01:31.480Z,24.6
2022-08-19T00:07:07.222Z,24.6
2022-08-19T00:12:49.143Z,24.6
2022-08-19T00:18:35.295Z,24.6
2022-08-19T00:23:57.096Z,24.6
2022-08-19T00:30:15.728Z,24.6
2022-08-19T00:35:37.019Z,24.6
2022-08-19T00:41:22.926Z,24.6
2022-08-19T00:46:15.878Z,24.6
2022-08-19T00:51:58.644Z,24.6
2022-08-19T00:57:38.581Z,24.6
2022-08-19T01:03:57.366Z,24.6
2022-08-19T01:09:50.374Z,24.6
2022-08-19T01:15:45.623Z,24.6
2022-08-19T01:21:25.491Z,24.6
2022-08-19T01:27:29.546Z,24.6
2022-08-19T01:33:57.312Z,24.6
2022-08-19T01:39:39.682Z,24.6
2022-08-19T01:45:56.625Z,24.6
2022-08-19T01:51:38.553Z,24.6
2022-08-19T01:57:13.530Z,24.6
2022-08-19T02:02:54.874Z,24.6
2022-08-19T02:08:39.668Z,24.6
2022-08-19T02:14:33.365Z,24.6
2022-08-19T02:20:13.831Z,24.6
2022-08-19T02:25:59.450Z,24.6
2022-08-19T02:31:38.060Z,24.6
2022-08-19T02:37:36.547Z,24.6
2022-08-19T02:43:19.733Z,24.6
2022-08-19T02:49:45.217Z,24.6
2022-08-19T02:55:25.765Z,24.6
2022-08-19T03:00:58.787Z,24.6
2022-08-19T03:07:10.532Z,24.6
2022-08-19T03:12:47.514Z,24.6
2022-08-19T03:18:13.903Z,24.6
2022-08-19T03:23:51.442Z,24.6
2022-08-19T03:30:05.626Z,24.6
2022-08-19T03:36:26.847Z,24.6
2022-08-19T03:43:06.569Z,24.5
2022-08-19T03:48:47.496Z,24.3
2022-08-19T03:54:33.876Z,24.3
2022-08-19T04:00:29.464Z,24.2
2022-08-19T04:06:20.208Z,24.2
2022-08-19T04:12:16.723Z,24.1
2022-08-19T04:17:41.789Z,24.1
2022-08-19T04:23:10.396Z,24
2022-08-19T04:28:54.925Z,23.9
2022-08-19T04:35:01.748Z,23.9
2022-08-19T04:40:54.620Z,23.9
2022-08-19T04:47:12.319Z,23.9
2022-08-19T04:53:28.832Z,23.9
2022-08-19T04:59:28.197Z,23.9
2022-08-19T05:04:54.530Z,23.9
2022-08-19T05:11:05.664Z,23.8
2022-08-19T05:16:46.561Z,23.8
2022-08-19T05:22:45.731Z,23.9
2022-08-19T05:28:39.056Z,23.8
2022-08-19T05:34:53.326Z,23.8
2022-08-19T05:40:30.230Z,23.8
2022-08-19T05:46:13.752Z,23.9
2022-08-19T05:52:01.266Z,23.9
2022-08-19T05:57:39.930Z,23.9
2022-08-19T06:03:28.969Z,23.9
2022-08-19T06:09:24.074Z,23.9
2022-08-19T06:15:34.181Z,24
2022-08-19T06:21:35.909Z,24
2022-08-19T06:27:18.271Z,24
2022-08-19T06:33:18.134Z,24.1
2022-08-19T06:38:56.220Z,24.1
2022-08-19T06:44:59.724Z,24.1
2022-08-19T06:50:58.679Z,24.1
2022-08-19T06:57:25.924Z,24.1
2022-08-19T07:03:13.128Z,24.1
2022-08-19T07:09:58.328Z,24.1
2022-08-19T07:16:02.368Z,24.1
2022-08-19T07:22:12.974Z,24.2
2022-08-19T07:28:40.480Z,24.2
2022-08-19T07:34:45.332Z,24.2
2022-08-19T07:40:24.820Z,24.2
2022-08-19T07:46:13.029Z,24.3
2022-08-19T07:52:27.401Z,24.3
2022-08-19T07:58:41.077Z,24.3
2022-08-19T08:04:29.320Z,24.3
2022-08-19T08:10:37.213Z,24.3
2022-08-19T08:17:48.964Z,24.3
2022-08-19T08:23:57.343Z,24.3
2022-08-19T08:30:07.593Z,24.3
2022-08-19T08:36:04.322Z,24.4
2022-08-19T08:41:48.905Z,24.4
2022-08-19T08:48:22.117Z,24.4
2022-08-19T08:54:04.789Z,24.4
2022-08-19T09:00:01.331Z,24.4
2022-08-19T09:06:04.791Z,24.4
2022-08-19T09:12:59.439Z,24.4
2022-08-19T09:19:26.533Z,24.4
2022-08-19T09:25:43.343Z,24.4
2022-08-19T09:32:26.042Z,24.4
2022-08-19T09:38:50.803Z,24.4
2022-08-19T09:45:10.580Z,24.4
2022-08-19T09:50:38.192Z,24.5
2022-08-19T09:56:47.648Z,24.5
2022-08-19T10:02:45.713Z,24.5
2022-08-19T10:09:26.560Z,24.5
2022-08-19T10:16:05.785Z,24.5
2022-08-19T10:22:44.935Z,24.5
2022-08-19T10:28:28.859Z,24.6
2022-08-19T10:35:42.457Z,24.6
2022-08-19T10:42:02.036Z,24.6
2022-08-19T10:47:50.356Z,24.6
2022-08-19T10:54:00.407Z,24.6
2022-08-19T11:00:26.161Z,24.6
2022-08-19T11:06:26.895Z,24.6
2022-08-19T11:12:19.249Z,24.6
2022-08-19T11:18:01.226Z,24.6
2022-08-19T11:23:48.261Z,24.6
2022-08-19T11:29:25.761Z,24.6
2022-08-19T11:35:11.124Z,24.6
2022-08-19T11:40:48.352Z,24.6
2022-08-19T11:46:25.910Z,24.6
2022-08-19T11:52:15.920Z,24.6
2022-08-19T11:57:57.307Z,24.6
2022-08-19T12:03:45.604Z,24.6
2022-08-19T12:09:27.223Z,24.6
2022-08-19T12:15:21.266Z,24.7
2022-08-19T12:20:52.936Z,24.7
2022-08-19T12:26:30.544Z,24.7
2022-08-19T12:32:28.389Z,24.7
2022-08-19T12:38:13.780Z,24.7
2022-08-19T12:43:57.943Z,24.7
2022-08-19T12:50:59.580Z,24.7
2022-08-19T12:56:45.417Z,24.8
2022-08-19T13:02:13.868Z,24.8
2022-08-19T13:07:58.712Z,24.7
2022-08-19T13:13:35.320Z,24.8
2022-08-19T13:19:25.126Z,24.8
2022-08-19T13:25:21.856Z,24.8
2022-08-19T13:31:06.504Z,24.8
2022-08-19T13:36:56.593Z,24.8
2022-08-19T13:42:38.167Z,24.8
2022-08-19T13:48:31.956Z,24.8
2022-08-19T13:54:10.684Z,24.8
2022-08-19T13:59:59.829Z,24.8
2022-08-19T14:05:38.277Z,24.8
2022-08-19T14:11:22.753Z,24.8
2022-08-19T14:17:01.047Z,24.8
2022-08-19T14:22:55.111Z,24.8
2022-08-19T14:28:33.232Z,24.8
2022-08-19T14:34:20.349Z,24.8
2022-08-19T14:40:11.310Z,24.9
2022-08-19T14:45:33.737Z,24.8
2022-08-19T14:51:35.553Z,24.9
2022-08-19T14:57:20.782Z,24.9
2022-08-19T15:03:26.559Z,24.9
2022-08-19T15:09:20.531Z,24.9
2022-08-19T15:15:13.061Z,24.9
2022-08-19T15:20:49.418Z,24.9
2022-08-19T15:26:32.247Z,24.9
2022-08-19T15:32:21.533Z,24.9
2022-08-19T15:37:58.665Z,24.9
2022-08-19T15:43:37.278Z,24.9
2022-08-19T15:49:28.563Z,24.9
2022-08-19T15:55:16.052Z,24.9
2022-08-19T16:01:49.858Z,24.9
2022-08-19T16:07:56.558Z,24.9
2022-08-19T16:14:10.471Z,24.9
2022-08-19T16:19:53.845Z,24.9
2022-08-19T16:25:34.413Z,24.9
2022-08-19T16:31:41.645Z,24.9
2022-08-19T16:37:25.279Z,25
2022-08-19T16:43:03.065Z,24.9
2022-08-19T16:48:38.282Z,24.9
2022-08-19T16:55:05.573Z,25
2022-08-19T17:00:55.367Z,25
2022-08-19T17:06:51.429Z,25
2022-08-19T17:13:05.105Z,25
2022-08-19T17:18:46.120Z,25
2022-08-19T17:24:33.757Z,25
2022-08-19T17:30:01.570Z,25
2022-08-19T17:35:46.099Z,25
2022-08-19T17:41:30.617Z,25
2022-08-19T17:47:25.378Z,25
2022-08-19T17:53:08.290Z,25
2022-08-19T17:59:00.227Z,25
2022-08-19T18:05:05.188Z,25
2022-08-19T18:10:52.013Z,25
2022-08-19T18:16:36.625Z,25
2022-08-19T18:22:10.934Z,25
2022-08-19T18:28:32.000Z,25
2022-08-19T18:34:17.311Z,25
2022-08-19T18:39:45.994Z,25
2022-08-19T18:45:22.641Z,25
2022-08-19T18:51:30.136Z,25
2022-08-19T18:57:07.441Z,25
2022-08-19T19:02:46.770Z,25
2022-08-19T19:08:26.930Z,25
2022-08-19T19:14:04.485Z,25
2022-08-19T19:19:52.232Z,25
2022-08-19T19:26:06.318Z,25
2022-08-19T19:31:49.337Z,25
2022-08-19T19:37:48.019Z,25
2022-08-19T19:43:28.245Z,25
2022-08-19T19:49:34.102Z,25.1
2022-08-19T19:55:54.187Z,25.1
2022-08-19T20:01:41.222Z,25.1
2022-08-19T20:07:24.051Z,25.1
2022-08-19T20:13:08.616Z,25.1
2022-08-19T20:18:14.847Z,25.1
2022-08-19T20:24:08.842Z,25.1
2022-08-19T20:30:56.065Z,25.1
2022-08-19T20:36:49.769Z,25.1
2022-08-19T20:42:33.629Z,25.1
2022-08-19T20:48:34.244Z,25.1
2022-08-19T20:54:17.121Z,25.1
2022-08-19T21:00:02.176Z,25.1
2022-08-19T21:05:46.285Z,25.1
2022-08-19T21:11:53.599Z,25.1
2022-08-19T21:17:33.880Z,25.1
2022-08-19T21:23:15.748Z,25.1
2022-08-19T21:29:09.226Z,25.1
2022-08-19T21:34:54.895Z,25.1
2022-08-19T21:40:44.396Z,25.1
2022-08-19T21:46:02.163Z,25.1
2022-08-19T21:51:40.682Z,25.1
2022-08-19T21:57:27.476Z,25.1
2022-08-19T22:03:26.172Z,25.1
2022-08-19T22:08:50.267Z,25.1
2022-08-19T22:14:31.655Z,25.1
2022-08-19T22:20:10.584Z,25.1
2022-08-19T22:26:21.704Z,25.1
2022-08-19T22:32:27.243Z,25.1
2022-08-19T22:38:04.758Z,25.1
2022-08-19T22:43:13.243Z,25.1
2022-08-19T22:48:56.032Z,25.1
2022-08-19T22:54:31.607Z,25.1
2022-08-19T23:00:17.577Z,25.1
2022-08-19T23:06:13.191Z,25.1
2022-08-19T23:12:06.668Z,25.1
2022-08-19T23:17:53.290Z,25.1
2022-08-19T23:23:15.774Z,25.1
2022-08-19T23:29:02.317Z,25.1
2022-08-19T23:34:58.341Z,25.1
2022-08-19T23:40:37.718Z,25.1
2022-08-19T23:46:54.810Z,25.1
2022-08-19T23:52:17.522Z,25.1
2022-08-19T23:58:21.115Z,25.1
